Time;durP1;ratioP1;P1;durP2;ratioP2;P2;SDS_P1;SDS_P2;PMS_P1;PMS_P2;Temp;Humidity;BMP_temperature;BMP_pressure;BME280_temperature;BME280_humidity;BME280_pressure;Samples;Min_cycle;Max_cycle;Signal;HPM_P1;HPM_P2
2021/05/21 00:01:24;;;;;;;5.80;5.30;;;;;;;16.64;28.26;100744.28;4984309;28;97231;-71
2021/05/21 00:03:52;;;;;;;5.60;5.10;;;;;;;16.62;28.28;100740.72;4984038;28;97961;-71
2021/05/21 00:06:19;;;;;;;5.38;4.90;;;;;;;16.58;28.12;100747.91;4983205;28;98414;-71
2021/05/21 00:08:47;;;;;;;6.33;5.63;;;;;;;16.55;28.44;100734.47;4985532;28;97678;-70
2021/05/21 00:11:15;;;;;;;6.13;5.55;;;;;;;16.52;28.56;100738.97;4984997;28;97079;-71
2021/05/21 00:13:44;;;;;;;6.20;5.20;;;;;;;16.48;28.17;100737.19;4984900;28;97864;-71
2021/05/21 00:16:14;;;;;;;6.53;5.53;;;;;;;16.44;28.55;100732.72;4984961;28;97782;-73
2021/05/21 00:18:42;;;;;;;6.10;5.53;;;;;;;16.41;28.39;100733.66;4984245;28;97474;-71
2021/05/21 00:21:11;;;;;;;6.13;5.53;;;;;;;16.35;28.70;100725.59;4985234;28;97229;-71
2021/05/21 00:23:38;;;;;;;6.28;5.68;;;;;;;16.34;28.71;100723.84;4983923;28;99128;-71
2021/05/21 00:26:06;;;;;;;6.43;5.82;;;;;;;16.36;28.48;100713.09;4982393;28;97651;-70
2021/05/21 00:28:34;;;;;;;6.17;5.57;;;;;;;16.38;28.41;100709.47;4984881;28;96803;-72
2021/05/21 00:31:03;;;;;;;5.82;5.43;;;;;;;16.39;28.72;100705.91;4984333;28;97505;-71
2021/05/21 00:33:30;;;;;;;6.30;5.70;;;;;;;16.40;28.74;100696.03;4984529;28;97980;-72
2021/05/21 00:35:58;;;;;;;6.05;5.55;;;;;;;16.41;28.60;100695.16;4984331;28;99589;-71
2021/05/21 00:38:26;;;;;;;5.90;5.40;;;;;;;16.45;28.78;100695.13;4984795;28;97123;-72
2021/05/21 00:40:54;;;;;;;6.28;5.68;;;;;;;16.46;28.65;100685.28;4982113;28;97751;-71
2021/05/21 00:43:21;;;;;;;6.85;6.25;;;;;;;16.51;28.73;100678.06;4983962;28;98218;-71
2021/05/21 00:45:49;;;;;;;5.77;5.30;;;;;;;16.46;28.98;100674.53;4983846;28;99193;-71
2021/05/21 00:48:18;;;;;;;6.35;5.72;;;;;;;16.43;28.75;100672.78;4982520;28;97083;-70
2021/05/21 00:50:46;;;;;;;5.80;5.40;;;;;;;16.45;29.00;100670.06;4982830;28;97381;-71
2021/05/21 00:53:14;;;;;;;6.20;5.70;;;;;;;16.40;28.61;100667.38;4984006;28;99560;-70
2021/05/21 00:55:42;;;;;;;6.53;5.90;;;;;;;16.42;28.88;100667.38;4983129;28;99020;-70
2021/05/21 00:58:10;;;;;;;6.28;5.78;;;;;;;16.43;28.70;100666.50;4984937;28;96846;-71
2021/05/21 01:00:38;;;;;;;5.90;5.50;;;;;;;16.43;28.71;100659.34;4983323;28;97679;-71
2021/05/21 01:03:06;;;;;;;6.40;5.90;;;;;;;16.39;29.02;100662.94;4984257;28;99749;-70
2021/05/21 01:05:34;;;;;;;6.40;5.80;;;;;;;16.38;28.84;100649.53;4983771;28;98051;-71
2021/05/21 01:08:03;;;;;;;6.68;6.07;;;;;;;16.39;29.08;100654.88;4984348;28;97726;-71
2021/05/21 01:10:31;;;;;;;6.35;5.78;;;;;;;16.36;29.02;100651.31;4983246;28;97670;-70
2021/05/21 01:12:59;;;;;;;7.45;5.90;;;;;;;16.39;29.33;100645.91;4984049;28;99030;-71
2021/05/21 01:15:27;;;;;;;6.40;5.80;;;;;;;16.39;29.37;100643.22;4982620;28;101005;-71
2021/05/21 01:17:54;;;;;;;6.10;5.60;;;;;;;16.37;29.34;100637.88;4982369;28;97231;-71
2021/05/21 01:20:22;;;;;;;6.40;5.80;;;;;;;16.36;29.07;100640.56;4982681;28;97062;-73
2021/05/21 01:22:51;;;;;;;5.70;5.30;;;;;;;16.35;29.53;100639.66;4984141;28;99296;-71
2021/05/21 01:25:20;;;;;;;6.07;5.57;;;;;;;16.33;29.47;100635.19;4982525;28;97741;-69
2021/05/21 01:27:49;;;;;;;5.97;5.47;;;;;;;16.32;29.53;100633.41;4983103;28;97287;-70
2021/05/21 01:30:18;;;;;;;6.18;5.63;;;;;;;16.31;29.28;100624.47;4984390;28;97270;-70
2021/05/21 01:32:46;;;;;;;5.97;5.47;;;;;;;16.31;29.27;100618.19;4983882;28;99133;-71
2021/05/21 01:35:15;;;;;;;6.22;5.63;;;;;;;16.30;29.34;100613.72;4982693;28;97316;-71
2021/05/21 01:37:45;;;;;;;5.90;5.40;;;;;;;16.29;29.23;100611.97;4983890;28;97295;-71
2021/05/21 01:40:15;;;;;;;6.32;5.68;;;;;;;16.28;29.22;100615.53;4983368;28;97179;-71
2021/05/21 01:42:43;;;;;;;6.07;5.53;;;;;;;16.28;29.67;100605.69;4982787;28;97887;-71
2021/05/21 01:45:12;;;;;;;5.80;5.30;;;;;;;16.27;29.46;100600.34;4982520;28;97805;-71
2021/05/21 01:47:40;;;;;;;6.03;5.53;;;;;;;16.26;29.45;100593.16;4984144;28;97138;-71
2021/05/21 01:50:11;;;;;;;5.57;5.18;;;;;;;16.23;29.69;100594.09;4982331;28;97885;-69
2021/05/21 01:52:39;;;;;;;6.27;5.80;;;;;;;16.19;29.65;100581.56;4981844;28;97853;-70
2021/05/21 01:55:08;;;;;;;6.07;5.57;;;;;;;16.17;29.60;100575.31;4981702;28;97557;-71
2021/05/21 01:57:40;;;;;;;5.70;5.30;;;;;;;16.14;29.45;100571.75;4984376;28;97696;-72
2021/05/21 02:00:10;;;;;;;5.80;5.30;;;;;;;16.16;29.42;100572.66;4982294;28;97224;-71
2021/05/21 02:02:42;;;;;;;6.30;5.72;;;;;;;16.15;29.51;100565.47;4981265;28;98471;-71
2021/05/21 02:05:10;;;;;;;5.22;4.82;;;;;;;16.11;29.80;100559.22;4979596;28;98204;-70
2021/05/21 02:07:38;;;;;;;5.95;5.20;;;;;;;16.07;29.76;100550.31;4983087;28;97050;-71
2021/05/21 02:10:08;;;;;;;5.22;4.80;;;;;;;16.05;29.39;100559.25;4980612;28;96970;-71
2021/05/21 02:12:37;;;;;;;5.20;4.70;;;;;;;16.01;29.42;100561.06;4983130;28;98990;-72
2021/05/21 02:15:07;;;;;;;5.07;4.57;;;;;;;16.03;29.35;100545.84;4982925;28;98917;-71
2021/05/21 02:17:35;;;;;;;4.60;4.27;;;;;;;15.95;29.24;100547.66;4982471;28;96995;-71
2021/05/21 02:20:05;;;;;;;5.07;4.68;;;;;;;15.96;29.38;100543.16;4981296;28;96944;-71
2021/05/21 02:22:33;;;;;;;4.82;4.32;;;;;;;15.91;29.09;100535.16;4982838;28;97922;-71
2021/05/21 02:25:02;;;;;;;4.10;3.80;;;;;;;15.87;29.07;100529.78;4983308;28;97817;-71
2021/05/21 02:27:30;;;;;;;5.05;4.65;;;;;;;15.77;29.61;100533.41;4980995;28;98066;-72
2021/05/21 02:29:58;;;;;;;4.55;4.15;;;;;;;15.73;29.57;100518.22;4983123;28;98070;-72
2021/05/21 02:32:26;;;;;;;4.60;4.20;;;;;;;15.69;29.54;100517.34;4982502;28;98634;-71
2021/05/21 02:34:54;;;;;;;4.22;4.00;;;;;;;15.69;29.33;100511.09;4984746;28;101099;-71
2021/05/21 02:37:23;;;;;;;4.57;4.25;;;;;;;15.66;29.74;100513.78;4985828;28;97157;-71
2021/05/21 02:39:50;;;;;;;5.50;5.10;;;;;;;15.67;29.75;100503.06;4985094;28;97139;-72
2021/05/21 02:42:18;;;;;;;4.97;4.68;;;;;;;15.70;29.56;100497.66;4985908;28;99346;-72
2021/05/21 02:44:46;;;;;;;6.10;5.20;;;;;;;15.66;29.84;100487.88;4985267;28;97844;-71
2021/05/21 02:47:14;;;;;;;5.60;5.10;;;;;;;15.67;30.01;100492.31;4985856;28;96832;-71
2021/05/21 02:49:43;;;;;;;6.15;5.55;;;;;;;15.61;30.06;100486.09;4995940;28;96918;-72
2021/05/21 02:52:11;;;;;;;5.90;5.40;;;;;;;15.59;29.68;100483.44;4994378;28;99645;-71
2021/05/21 02:54:38;;;;;;;5.82;5.32;;;;;;;15.59;30.07;100483.44;4986703;28;98922;-72
2021/05/21 02:57:06;;;;;;;5.80;5.30;;;;;;;15.55;30.00;100481.66;4986340;28;96757;-72
2021/05/21 02:59:34;;;;;;;5.47;5.07;;;;;;;15.49;30.13;100481.66;4985589;28;97138;-71
2021/05/21 03:02:02;;;;;;;6.00;5.50;;;;;;;15.39;30.33;100473.66;4984293;28;99601;-73
2021/05/21 03:04:30;;;;;;;5.67;5.27;;;;;;;15.31;30.29;100467.41;4985753;28;97808;-72
2021/05/21 03:06:58;;;;;;;5.75;5.25;;;;;;;15.29;30.27;100463.81;4985495;28;97756;-72
2021/05/21 03:09:26;;;;;;;6.13;5.63;;;;;;;15.27;30.16;100463.81;4985744;28;96913;-72
2021/05/21 03:11:54;;;;;;;6.00;5.47;;;;;;;15.29;30.35;100462.06;4985090;28;98440;-72
2021/05/21 03:14:21;;;;;;;6.90;6.30;;;;;;;15.27;30.09;100461.16;4985078;28;96916;-72
2021/05/21 03:16:49;;;;;;;6.28;5.68;;;;;;;15.27;30.47;100458.47;4985021;28;97399;-72
2021/05/21 03:19:17;;;;;;;6.55;5.85;;;;;;;15.29;30.44;100456.72;4985169;28;97938;-72
2021/05/21 03:21:45;;;;;;;6.50;5.87;;;;;;;15.29;30.40;100446.00;4985940;28;99313;-71
2021/05/21 03:24:14;;;;;;;6.22;5.60;;;;;;;15.27;30.45;100442.38;4984584;28;98044;-71
2021/05/21 03:26:42;;;;;;;6.40;5.90;;;;;;;15.26;30.37;100443.28;4985738;28;97127;-72
2021/05/21 03:29:09;;;;;;;6.53;5.87;;;;;;;15.28;30.52;100443.28;4985466;28;97270;-72
2021/05/21 03:31:37;;;;;;;6.40;5.90;;;;;;;15.27;30.74;100436.13;4985436;28;101607;-71
2021/05/21 03:34:07;;;;;;;6.60;6.10;;;;;;;15.29;30.40;100435.25;4984753;28;97842;-72
2021/05/21 03:36:35;;;;;;;6.97;6.20;;;;;;;15.29;30.35;100437.94;4985225;28;97577;-72
2021/05/21 03:39:03;;;;;;;6.20;5.70;;;;;;;15.27;30.85;100434.34;4985712;28;97680;-71
2021/05/21 03:41:32;;;;;;;6.45;5.85;;;;;;;15.27;30.78;100420.94;4982659;28;97173;-71
2021/05/21 03:44:00;;;;;;;6.10;5.60;;;;;;;15.26;30.54;100421.84;4985844;28;98112;-71
2021/05/21 03:46:29;;;;;;;6.83;6.13;;;;;;;15.20;30.36;100420.97;4983163;28;96916;-72
2021/05/21 03:48:57;;;;;;;6.20;5.70;;;;;;;15.17;30.50;100419.19;4988002;28;97310;-72
2021/05/21 03:51:25;;;;;;;6.07;5.47;;;;;;;15.17;30.95;100408.47;4984719;28;98288;-71
2021/05/21 03:53:55;;;;;;;6.53;5.93;;;;;;;15.07;30.90;100409.38;4985080;28;100506;-72
2021/05/21 03:56:23;;;;;;;6.03;5.53;;;;;;;15.05;30.78;100405.81;4986121;28;97567;-71
2021/05/21 03:58:54;;;;;;;5.97;5.40;;;;;;;15.03;31.17;100394.22;4985909;28;96909;-72
2021/05/21 04:01:22;;;;;;;5.65;5.18;;;;;;;15.03;30.77;100391.53;4982519;28;98429;-72
2021/05/21 04:03:51;;;;;;;6.20;5.70;;;;;;;15.04;31.14;100385.28;4985087;28;97486;-72
2021/05/21 04:06:19;;;;;;;5.68;5.28;;;;;;;15.04;31.09;100380.84;4983469;28;96848;-72
2021/05/21 04:08:46;;;;;;;4.10;3.80;;;;;;;15.07;30.82;100386.19;4984256;28;97486;-72
2021/05/21 04:11:14;;;;;;;5.60;5.20;;;;;;;15.03;30.76;100391.53;4983855;28;98464;-71
2021/05/21 04:13:41;;;;;;;11.93;10.70;;;;;;;15.04;31.29;100374.56;4985727;28;99022;-71
2021/05/21 04:16:13;;;;;;;5.85;5.35;;;;;;;15.02;31.40;100373.69;4985161;28;96879;-72
2021/05/21 04:18:41;;;;;;;7.45;6.75;;;;;;;15.04;31.26;100371.91;4985155;28;97039;-72
2021/05/21 04:21:08;;;;;;;5.05;4.70;;;;;;;15.02;30.99;100368.31;4985117;28;97806;-72
2021/05/21 04:23:38;;;;;;;6.90;6.20;;;;;;;15.03;31.15;100364.72;4986966;28;97876;-71
2021/05/21 04:26:06;;;;;;;7.95;6.13;;;;;;;15.03;31.19;100362.06;4985498;28;97271;-71
2021/05/21 04:28:34;;;;;;;5.15;4.75;;;;;;;15.06;31.31;100362.06;4984876;28;98539;-71
2021/05/21 04:31:02;;;;;;;5.07;4.68;;;;;;;15.09;31.42;100354.00;4982397;28;99166;-72
2021/05/21 04:33:30;;;;;;;5.03;4.63;;;;;;;15.11;31.42;100346.84;4984067;28;98787;-71
2021/05/21 04:35:59;;;;;;;5.70;4.82;;;;;;;15.13;31.45;100347.75;4986219;28;96865;-72
2021/05/21 04:38:27;;;;;;;8.38;7.57;;;;;;;15.16;31.20;100345.03;4985714;28;97010;-72
2021/05/21 04:40:55;;;;;;;4.85;4.47;;;;;;;15.21;31.08;100339.66;4983225;28;102382;-71
2021/05/21 04:43:24;;;;;;;5.13;4.50;;;;;;;15.21;31.19;100337.84;4984739;28;99552;-72
2021/05/21 04:45:51;;;;;;;4.85;4.45;;;;;;;15.27;31.55;100340.50;4985008;28;97772;-72
2021/05/21 04:48:19;;;;;;;5.38;4.88;;;;;;;15.31;31.54;100347.69;4983110;28;97984;-73
2021/05/21 04:50:49;;;;;;;6.03;4.63;;;;;;;15.34;31.20;100338.75;4984365;28;97953;-72
2021/05/21 04:53:17;;;;;;;5.13;4.72;;;;;;;15.37;31.09;100331.56;4984563;28;98118;-72
2021/05/21 04:55:46;;;;;;;5.90;4.82;;;;;;;15.44;31.21;100325.28;4983744;28;96935;-73
2021/05/21 04:58:13;;;;;;;4.88;4.32;;;;;;;15.48;31.38;100321.69;4982546;28;97150;-73
2021/05/21 05:00:42;;;;;;;4.70;4.30;;;;;;;15.49;31.42;100307.34;4983637;28;99107;-73
2021/05/21 05:03:13;;;;;;;14.15;10.52;;;;;;;15.53;31.51;100310.91;4985409;28;98984;-72
2021/05/21 05:05:41;;;;;;;4.87;4.47;;;;;;;15.53;30.87;100305.53;4984967;28;97255;-72
2021/05/21 05:08:10;;;;;;;4.90;4.60;;;;;;;15.52;31.04;100312.69;4983221;28;97643;-72
2021/05/21 05:10:37;;;;;;;5.07;4.53;;;;;;;15.45;31.07;100297.53;4983112;28;98384;-72
2021/05/21 05:13:05;;;;;;;4.63;4.22;;;;;;;15.41;31.07;100295.78;4984598;28;97756;-73
2021/05/21 05:15:34;;;;;;;7.60;6.35;;;;;;;15.44;30.93;100295.78;4965442;28;97602;-76
2021/05/21 05:18:03;;;;;;;4.80;4.50;;;;;;;15.46;30.75;100288.63;4982735;28;98506;-74
2021/05/21 05:20:30;;;;;;;4.80;4.45;;;;;;;15.46;30.81;100290.41;4979902;28;99528;-73
2021/05/21 05:22:58;;;;;;;4.10;3.90;;;;;;;15.41;31.11;100287.72;4983130;28;98928;-73
2021/05/21 05:25:27;;;;;;;4.10;3.80;;;;;;;15.37;31.29;100286.00;4984247;28;97166;-73
2021/05/21 05:27:55;;;;;;;4.00;3.70;;;;;;;15.39;31.19;100276.16;4984442;28;97638;-73
2021/05/21 05:30:24;;;;;;;4.00;3.63;;;;;;;15.43;30.80;100275.22;4982487;28;98426;-73
2021/05/21 05:32:52;;;;;;;3.95;3.70;;;;;;;15.47;30.83;100274.28;4984633;28;97641;-73
2021/05/21 05:35:20;;;;;;;4.93;4.05;;;;;;;15.47;30.84;100268.94;4984200;28;96770;-73
2021/05/21 05:37:47;;;;;;;6.28;5.68;;;;;;;15.50;30.79;100268.03;4984707;28;97511;-73
2021/05/21 05:40:16;;;;;;;4.60;4.20;;;;;;;15.49;31.07;100267.13;4982404;28;99212;-73
2021/05/21 05:42:44;;;;;;;3.97;3.67;;;;;;;15.49;31.11;100264.44;4983623;28;99119;-73
2021/05/21 05:45:13;;;;;;;3.50;3.30;;;;;;;15.51;31.19;100270.69;4982351;28;96948;-73
2021/05/21 05:47:45;;;;;;;4.05;3.75;;;;;;;15.60;30.49;100267.03;4983885;28;96989;-73
2021/05/21 05:50:13;;;;;;;3.88;3.58;;;;;;;15.64;30.93;100261.66;4982567;28;98988;-72
2021/05/21 05:52:41;;;;;;;4.37;3.90;;;;;;;15.69;30.86;100258.94;4984516;28;98817;-73
2021/05/21 05:55:10;;;;;;;4.05;3.75;;;;;;;15.75;30.81;100251.75;4987058;28;96912;-73
2021/05/21 05:57:37;;;;;;;4.97;3.60;;;;;;;15.80;30.47;100257.94;4987174;28;97102;-73
2021/05/21 06:00:08;;;;;;;4.90;4.50;;;;;;;15.85;30.66;100249.84;4987964;28;97015;-73
2021/05/21 06:02:35;;;;;;;4.20;3.50;;;;;;;15.88;30.43;100242.69;4984369;28;97782;-72
2021/05/21 06:05:05;;;;;;;3.70;3.40;;;;;;;15.84;30.60;100243.59;4985716;28;97115;-72
2021/05/21 06:07:33;;;;;;;3.58;3.30;;;;;;;15.86;30.20;100240.91;4987916;28;97334;-72
2021/05/21 06:10:00;;;;;;;3.70;3.50;;;;;;;15.90;30.58;100240.84;4985412;28;97687;-73
2021/05/21 06:12:28;;;;;;;3.97;3.60;;;;;;;15.96;30.15;100232.75;4984334;28;98104;-73
2021/05/21 06:14:56;;;;;;;3.77;3.47;;;;;;;16.00;30.10;100233.59;4983412;28;97181;-73
2021/05/21 06:17:25;;;;;;;3.72;3.53;;;;;;;15.98;29.90;100227.34;4985334;28;98419;-73
2021/05/21 06:19:53;;;;;;;4.18;3.70;;;;;;;15.98;30.04;100220.22;4984525;28;97889;-73
2021/05/21 06:22:20;;;;;;;4.63;3.97;;;;;;;15.97;30.36;100217.53;4983940;28;98216;-72
2021/05/21 06:24:51;;;;;;;4.15;3.55;;;;;;;15.92;30.57;100216.72;4985148;28;96777;-73
2021/05/21 06:27:23;;;;;;;3.97;3.67;;;;;;;15.98;30.46;100217.53;4983660;28;96772;-73
2021/05/21 06:29:51;;;;;;;3.70;3.50;;;;;;;16.04;30.00;100208.56;4982053;28;97901;-73
2021/05/21 06:32:19;;;;;;;4.13;3.90;;;;;;;16.10;30.38;100203.13;4982632;28;98901;-73
2021/05/21 06:34:47;;;;;;;3.85;3.50;;;;;;;16.18;29.89;100203.91;4981253;28;97345;-73
2021/05/21 06:37:24;;;;;;;3.90;3.50;;;;;;;16.23;29.91;100204.78;4983611;28;97697;-74
2021/05/21 06:40:09;;;;;;;3.77;3.47;;;;;;;16.27;29.83;100185.03;4981251;28;99006;-73
2021/05/21 06:42:37;;;;;;;3.70;3.42;;;;;;;16.28;30.27;100181.44;4981750;28;97928;-72
2021/05/21 06:45:06;;;;;;;28.67;17.57;;;;;;;16.35;29.94;100177.78;4983890;28;98040;-73
2021/05/21 06:47:34;;;;;;;4.63;4.20;;;;;;;16.37;30.25;100167.00;4981646;28;97022;-73
2021/05/21 06:50:03;;;;;;;3.57;3.27;;;;;;;16.40;29.91;100169.66;4983636;28;99224;-73
2021/05/21 06:52:31;;;;;;;5.03;3.38;;;;;;;16.40;29.83;100165.19;4984277;28;99356;-74
2021/05/21 06:54:59;;;;;;;3.80;3.35;;;;;;;16.40;30.20;100164.28;4984043;28;97369;-73
2021/05/21 06:57:27;;;;;;;4.32;3.10;;;;;;;16.44;29.74;100157.97;4981995;28;97562;-73
2021/05/21 06:59:58;;;;;;;3.40;3.10;;;;;;;16.47;30.16;100155.25;4976992;28;97699;-75
2021/05/21 07:02:28;;;;;;;14.63;9.70;;;;;;;16.55;29.77;100145.28;4978404;28;98901;-74
2021/05/21 07:04:57;;;;;;;4.13;3.47;;;;;;;16.61;29.43;100153.28;4983653;28;97905;-75
2021/05/21 07:07:31;;;;;;;5.15;2.92;;;;;;;16.65;29.39;100155.03;4984535;28;97085;-73
2021/05/21 07:10:00;;;;;;;2.78;2.58;;;;;;;16.70;29.01;100145.09;4983649;28;102310;-73
2021/05/21 07:12:28;;;;;;;3.28;2.97;;;;;;;16.73;28.91;100148.66;4983043;28;96871;-74
2021/05/21 07:14:57;;;;;;;5.27;2.57;;;;;;;16.69;28.88;100137.97;4979556;28;97906;-74
2021/05/21 07:17:25;;;;;;;3.45;2.40;;;;;;;16.70;28.80;100123.59;4982427;28;97440;-74
2021/05/21 07:19:53;;;;;;;5.07;3.05;;;;;;;16.73;28.83;100126.25;4982811;28;97820;-75
2021/05/21 07:22:23;;;;;;;2.40;2.20;;;;;;;16.73;28.96;100111.03;4979838;28;97714;-73
2021/05/21 07:24:52;;;;;;;2.50;2.30;;;;;;;16.73;28.56;100105.66;4980238;28;98007;-74
2021/05/21 07:27:20;;;;;;;2.88;2.17;;;;;;;16.72;28.33;100108.38;4983516;28;97060;-71
2021/05/21 07:29:47;;;;;;;4.10;2.03;;;;;;;16.78;28.53;100087.66;4984735;28;99187;-74
2021/05/21 07:32:15;;;;;;;2.58;2.20;;;;;;;16.81;28.26;100100.19;4999451;28;97644;-73
2021/05/21 07:34:43;;;;;;;2.85;2.00;;;;;;;16.74;28.34;100098.50;4985840;28;97423;-73
2021/05/21 07:37:11;;;;;;;4.15;2.55;;;;;;;16.69;28.38;100084.22;4983754;28;97668;-73
2021/05/21 07:39:38;;;;;;;2.35;2.15;;;;;;;16.67;28.57;100086.03;4985041;28;99043;-73
2021/05/21 07:42:07;;;;;;;2.10;2.00;;;;;;;16.70;28.81;100077.94;4983023;28;98896;-72
2021/05/21 07:44:35;;;;;;;4.13;2.10;;;;;;;16.73;28.14;100088.66;4983662;28;97739;-74
2021/05/21 07:47:03;;;;;;;2.22;2.10;;;;;;;16.73;27.66;100086.84;4983235;28;97610;-73
2021/05/21 07:49:32;;;;;;;2.38;2.05;;;;;;;16.76;27.96;100078.75;4981286;28;97827;-71
2021/05/21 07:52:00;;;;;;;4.07;2.20;;;;;;;16.77;28.07;100074.25;4981543;28;98467;-70
2021/05/21 07:54:28;;;;;;;2.30;2.20;;;;;;;16.82;27.68;100077.75;4982079;28;97419;-71
2021/05/21 07:56:55;;;;;;;3.10;2.00;;;;;;;16.85;27.72;100072.34;4981482;28;96810;-70
2021/05/21 07:59:24;;;;;;;2.13;1.80;;;;;;;16.91;27.91;100067.75;4981173;28;99445;-71
2021/05/21 08:02:02;;;;;;;2.35;2.15;;;;;;;16.97;27.55;100069.47;4975911;28;99133;-71
2021/05/21 08:04:30;;;;;;;3.33;2.50;;;;;;;17.02;27.62;100073.84;4997773;28;97691;-71
2021/05/21 08:06:59;;;;;;;2.28;2.10;;;;;;;17.11;27.54;100064.72;4984329;28;97565;-70
2021/05/21 08:09:27;;;;;;;3.90;2.30;;;;;;;17.22;27.46;100065.44;4983006;28;98881;-71
2021/05/21 08:11:55;;;;;;;2.03;1.92;;;;;;;17.35;27.35;100058.03;4981439;28;99481;-70
2021/05/21 08:14:23;;;;;;;2.17;1.80;;;;;;;17.40;27.18;100050.84;4982722;28;97313;-72
2021/05/21 08:16:53;;;;;;;3.03;2.00;;;;;;;17.49;27.17;100043.44;4980974;28;97137;-72
2021/05/21 08:19:41;;;;;;;2.17;1.98;;;;;;;17.62;27.15;100041.44;4981543;28;99478;-72
2021/05/21 08:22:09;;;;;;;2.67;1.92;;;;;;;17.70;26.79;100040.38;4983552;28;97798;-72
2021/05/21 08:24:37;;;;;;;1.98;1.80;;;;;;;17.76;26.79;100045.63;4983979;28;97205;-70
2021/05/21 08:27:05;;;;;;;5.55;4.85;;;;;;;17.78;26.54;100042.91;4980647;28;97791;-71
2021/05/21 08:29:33;;;;;;;2.80;1.53;;;;;;;17.81;26.12;100032.97;4980938;28;97919;-72
2021/05/21 08:32:02;;;;;;;2.43;1.47;;;;;;;17.80;25.80;100031.19;4982511;28;98459;-72
2021/05/21 08:34:30;;;;;;;3.38;1.90;;;;;;;17.82;25.46;100031.16;4979366;28;97569;-71
2021/05/21 08:36:58;;;;;;;1.70;1.60;;;;;;;17.83;25.22;100031.13;4981315;28;97388;-71
2021/05/21 08:39:26;;;;;;;3.13;1.80;;;;;;;17.85;25.45;100034.69;4982195;28;99216;-71
2021/05/21 08:41:55;;;;;;;3.25;1.70;;;;;;;17.86;25.21;100027.47;4982494;28;97874;-71
2021/05/21 08:44:25;;;;;;;4.88;1.80;;;;;;;17.86;25.17;100014.00;4982852;28;97321;-70
2021/05/21 08:46:54;;;;;;;1.83;1.63;;;;;;;17.90;25.01;100024.69;4981259;28;97602;-71
2021/05/21 08:49:23;;;;;;;1.70;1.50;;;;;;;17.89;24.97;100009.44;4981244;28;97828;-70
2021/05/21 08:51:52;;;;;;;3.42;1.50;;;;;;;17.88;25.03;100013.06;4989070;28;100300;-71
2021/05/21 08:54:54;;;;;;;1.90;1.73;;;;;;;17.85;24.91;100009.56;4985805;28;97603;-71
2021/05/21 08:57:21;;;;;;;2.23;1.83;;;;;;;17.83;24.84;100008.72;4983545;28;97473;-71
2021/05/21 08:59:50;;;;;;;3.30;1.60;;;;;;;17.81;24.79;100008.75;4982847;28;97914;-71
2021/05/21 09:02:25;;;;;;;4.43;2.00;;;;;;;17.78;24.63;100005.22;4983063;28;99495;-71
2021/05/21 09:04:56;;;;;;;3.22;1.60;;;;;;;17.77;24.20;100004.34;4983132;28;96988;-70
2021/05/21 09:07:25;;;;;;;3.53;1.40;;;;;;;17.78;24.36;100003.41;4983417;28;97327;-70
2021/05/21 09:09:55;;;;;;;1.80;1.23;;;;;;;17.75;24.29;100003.47;4982799;28;99080;-71
2021/05/21 09:12:24;;;;;;;3.00;1.50;;;;;;;17.79;24.38;99999.81;4977919;28;98698;-72
2021/05/21 09:15:22;;;;;;;1.75;1.60;;;;;;;17.91;24.22;99998.69;4980887;28;98230;-73
2021/05/21 09:17:52;;;;;;;2.30;1.57;;;;;;;18.02;24.21;99994.81;4922537;28;97029;-72
2021/05/21 09:20:39;;;;;;;4.93;1.67;;;;;;;18.11;23.84;100012.63;4966747;28;99420;-72
2021/05/21 09:23:09;;;;;;;2.00;1.63;;;;;;;18.11;23.86;100003.66;4984402;28;102050;-72
2021/05/21 09:25:41;;;;;;;2.60;1.52;;;;;;;18.10;23.71;99992.00;4984321;28;96914;-72
2021/05/21 09:28:32;;;;;;;3.08;1.38;;;;;;;18.14;23.70;99982.94;4981854;28;97530;-72
2021/05/21 09:31:08;;;;;;;2.97;1.50;;;;;;;18.18;23.52;99999.91;4983376;28;98140;-71
2021/05/21 09:33:39;;;;;;;2.37;1.50;;;;;;;18.16;23.46;99999.06;4984165;28;97844;-72
2021/05/21 09:36:07;;;;;;;2.70;1.30;;;;;;;18.11;23.18;100011.75;4984906;28;97153;-72
2021/05/21 09:38:45;;;;;;;2.85;1.58;;;;;;;18.06;23.10;99992.13;4982657;28;97170;-72
2021/05/21 09:41:12;;;;;;;4.20;1.50;;;;;;;18.16;23.38;99978.41;4987208;28;98856;-72
2021/05/21 09:43:41;;;;;;;1.97;1.37;;;;;;;18.21;23.23;99978.28;4987546;28;98825;-71
2021/05/21 09:46:10;;;;;;;1.50;1.40;;;;;;;18.24;23.15;99989.88;4986849;28;97080;-72
2021/05/21 09:48:40;;;;;;;1.80;1.50;;;;;;;18.24;23.14;99978.22;4983848;28;96997;-72
2021/05/21 09:51:12;;;;;;;2.67;1.20;;;;;;;18.24;22.89;99978.22;4984777;28;97891;-72
2021/05/21 09:53:40;;;;;;;4.60;1.40;;;;;;;18.27;22.61;99979.03;4986795;28;97762;-72
2021/05/21 09:56:17;;;;;;;2.00;1.90;;;;;;;18.32;22.76;99965.47;4979449;28;99512;-72
2021/05/21 09:58:49;;;;;;;3.23;1.30;;;;;;;18.42;22.91;99959.81;4979488;28;97661;-73
2021/05/21 10:01:18;;;;;;;2.03;1.10;;;;;;;18.50;22.70;99968.59;4984319;28;99693;-72
2021/05/21 10:03:49;;;;;;;1.30;1.20;;;;;;;18.55;22.72;99977.44;4986444;28;98151;-72
2021/05/21 10:06:18;;;;;;;3.58;1.38;;;;;;;18.59;22.39;99972.88;4982155;28;97201;-72
2021/05/21 10:08:48;;;;;;;4.47;1.20;;;;;;;18.62;22.23;99962.03;4986458;28;97500;-72
2021/05/21 10:11:17;;;;;;;1.83;1.20;;;;;;;18.67;22.25;99952.91;4977574;28;98497;-72
2021/05/21 10:13:46;;;;;;;2.63;1.23;;;;;;;18.73;22.28;99947.38;4985995;28;97817;-72
2021/05/21 10:16:15;;;;;;;3.45;1.55;;;;;;;18.78;22.01;99944.59;4985506;28;97631;-73
2021/05/21 10:18:45;;;;;;;2.08;1.60;;;;;;;18.81;22.35;99940.00;4977680;28;97286;-74
2021/05/21 10:21:14;;;;;;;2.35;1.75;;;;;;;18.88;21.93;99927.22;4981810;28;97988;-73
2021/05/21 10:23:46;;;;;;;1.45;1.35;;;;;;;18.95;22.22;99920.78;4983125;28;100536;-74
2021/05/21 10:26:17;;;;;;;11.23;2.00;;;;;;;18.96;21.58;99922.53;4984790;28;97707;-74
2021/05/21 10:28:47;;;;;;;10.17;1.93;;;;;;;18.96;21.70;99930.63;4983303;28;97112;-74
2021/05/21 10:31:18;;;;;;;5.30;1.33;;;;;;;18.97;21.52;99916.19;4982428;28;97496;-72
2021/05/21 10:33:49;;;;;;;1.70;1.20;;;;;;;18.95;21.31;99936.94;4982594;28;98013;-73
2021/05/21 10:36:37;;;;;;;2.55;1.85;;;;;;;18.93;21.12;99923.50;4984791;28;97029;-73
2021/05/21 10:39:23;;;;;;;5.28;1.40;;;;;;;18.89;20.99;99905.66;4984927;28;97263;-73
2021/05/21 10:42:27;;;;;;;2.90;1.20;;;;;;;18.97;21.11;99911.69;4978335;28;99036;-73
2021/05/21 10:45:23;;;;;;;2.22;1.30;;;;;;;19.12;20.69;99937.38;4979274;28;100002;-73
2021/05/21 10:47:57;;;;;;;3.40;1.27;;;;;;;19.15;20.60;99915.72;4983949;28;96962;-73
2021/05/21 10:50:32;;;;;;;6.47;1.58;;;;;;;19.21;20.91;99911.97;4982096;28;96771;-73
2021/05/21 10:53:03;;;;;;;2.13;1.30;;;;;;;19.26;20.59;99910.91;4982573;28;97816;-74
2021/05/21 10:55:46;;;;;;;3.53;1.55;;;;;;;19.34;21.06;99906.22;4977637;28;98832;-75
2021/05/21 10:58:19;;;;;;;1.40;1.30;;;;;;;19.39;20.92;99906.09;4982755;28;97197;-74
2021/05/21 11:01:14;;;;;;;2.30;1.30;;;;;;;19.38;20.72;99910.59;4982881;28;97899;-74
2021/05/21 11:04:02;;;;;;;5.57;1.40;;;;;;;19.43;20.65;99916.72;4980953;28;97510;-75
2021/05/21 11:06:31;;;;;;;2.35;1.40;;;;;;;19.37;20.38;99906.09;4980666;28;97792;-72
2021/05/21 11:09:01;;;;;;;1.80;1.50;;;;;;;19.36;20.81;99923.25;4976694;28;97826;-73
2021/05/21 11:11:42;;;;;;;5.90;1.47;;;;;;;19.30;21.08;99934.16;4984496;28;97986;-73
2021/05/21 11:14:22;;;;;;;1.45;1.35;;;;;;;19.22;21.15;99909.22;4984084;28;97998;-72
2021/05/21 11:16:51;;;;;;;2.47;1.33;;;;;;;19.21;21.19;99925.47;4983085;28;100106;-73
2021/05/21 11:19:20;;;;;;;1.33;1.30;;;;;;;19.22;20.68;99901.13;4984919;28;98471;-73
2021/05/21 11:21:51;;;;;;;2.70;1.38;;;;;;;19.23;20.95;99915.47;4985669;28;96976;-72
2021/05/21 11:24:36;;;;;;;1.52;1.27;;;;;;;19.28;21.26;99898.25;4984293;28;98911;-73
2021/05/21 11:27:07;;;;;;;2.27;1.27;;;;;;;19.36;21.29;99907.03;4983805;28;98002;-74
2021/05/21 11:29:35;;;;;;;2.03;1.20;;;;;;;19.34;21.02;99898.09;4974915;28;97407;-73
2021/05/21 11:32:05;;;;;;;1.27;1.17;;;;;;;19.28;20.84;99911.72;4984074;28;96914;-73
2021/05/21 11:34:33;;;;;;;3.10;1.50;;;;;;;19.23;20.92;99905.59;4981212;28;99884;-72
2021/05/21 11:37:04;;;;;;;1.70;1.40;;;;;;;19.19;21.44;99893.13;4980588;28;98624;-72
2021/05/21 11:39:33;;;;;;;1.20;1.10;;;;;;;19.17;20.98;99907.59;4977886;28;97944;-72